Time;durP1;ratioP1;P1;durP2;ratioP2;P2;SDS_P1;SDS_P2;PMS_P1;PMS_P2;Temp;Humidity;BMP_temperature;BMP_pressure;BME280_temperature;BME280_humidity;BME280_pressure;Samples;Min_cycle;Max_cycle;Signal;HPM_P1;HPM_P2
2023/06/29 00:00:31;;;;;;;17.35;9.25;;;;;;;;;;5029582;28;20134;-65
2023/06/29 00:02:58;;;;;;;;;;;;;;;;;;5043411;28;20052;-65
2023/06/29 00:05:25;;;;;;;16.57;7.83;;;;;;;;;;5052113;28;19927;-65
2023/06/29 00:07:51;;;;;;;17.48;9.15;;;;;;;;;;5010895;28;20076;-65
2023/06/29 00:10:18;;;;;;;23.02;8.88;;;;;;;;;;5059210;28;20052;-66
2023/06/29 00:12:44;;;;;;;18.52;8.75;;;;;;;;;;5058795;28;20061;-65
2023/06/29 00:15:12;;;;;;;22.65;9.65;;;;;;;;;;5057285;28;20056;-65
2023/06/29 00:17:39;;;;;;;19.45;9.70;;;;;;;;;;5014743;28;20075;-65
2023/06/29 00:20:09;;;;;;;22.38;10.63;;;;;;;;;;5035019;28;20063;-64
2023/06/29 00:22:40;;;;;;;22.33;9.63;;;;;;;;;;5043417;28;20053;-65
2023/06/29 00:25:08;;;;;;;18.38;9.57;;;;;;;;;;5049879;28;20230;-65
2023/06/29 00:27:43;;;;;;;21.00;10.27;;;;;;;;;;5029872;28;20072;-64
2023/06/29 00:30:10;;;;;;;20.17;8.82;;;;;;;;;;5024654;28;20142;-64
2023/06/29 00:32:38;;;;;;;22.55;9.40;;;;;;;;;;5049167;28;20360;-65
2023/06/29 00:35:05;;;;;;;22.40;9.85;;;;;;;;;;5039858;28;20061;-67
2023/06/29 00:37:37;;;;;;;20.05;9.25;;;;;;;;;;5018780;28;20058;-64
2023/06/29 00:40:07;;;;;;;21.55;9.32;;;;;;;;;;5041829;28;20055;-64
2023/06/29 00:42:34;;;;;;;19.42;10.02;;;;;;;;;;5054997;28;20300;-64
2023/06/29 00:45:00;;;;;;;22.10;10.00;;;;;;;;;;5043531;28;20055;-65
2023/06/29 00:47:27;;;;;;;20.20;10.25;;;;;;;;;;5051901;28;20057;-65
2023/06/29 00:49:59;;;;;;;25.33;10.13;;;;;;;;;;5030750;28;20053;-65
2023/06/29 00:52:25;;;;;;;22.38;10.18;;;;;;;;;;5024859;28;20079;-65
2023/06/29 00:54:54;;;;;;;23.42;10.52;;;;;;;;;;5052184;28;20061;-64
2023/06/29 00:57:21;;;;;;;21.33;10.57;;;;;;;;;;5033475;28;20056;-65
2023/06/29 00:59:47;;;;;;;22.15;9.48;;;;;;;;;;5042330;28;20061;-65
2023/06/29 01:02:15;;;;;;;20.77;10.40;;;;;;;;;;5053029;28;20136;-65
2023/06/29 01:04:45;;;;;;;19.08;9.25;;;;;;;;;;5055704;28;20049;-65
2023/06/29 01:07:17;;;;;;;23.77;11.10;;;;;;;;;;5048152;28;20056;-65
2023/06/29 01:09:46;;;;;;;42.08;21.80;;;;;;;;;;5052554;28;20136;-65
2023/06/29 01:12:13;;;;;;;37.17;17.83;;;;;;;;;;5054901;28;20060;-65
2023/06/29 01:14:40;;;;;;;32.80;14.80;;;;;;;;;;5043749;28;20084;-65
2023/06/29 01:17:11;;;;;;;23.35;10.82;;;;;;;;;;5049091;28;20065;-64
2023/06/29 01:19:42;;;;;;;21.95;9.80;;;;;;;;;;5011073;28;20106;-64
2023/06/29 01:22:11;;;;;;;21.02;9.73;;;;;;;;;;5057881;28;20053;-65
2023/06/29 01:24:40;;;;;;;19.55;9.95;;;;;;;;;;5053284;28;20064;-64
2023/06/29 01:27:12;;;;;;;23.35;10.60;;;;;;;;;;5047264;28;20056;-65
2023/06/29 01:29:40;;;;;;;20.88;9.70;;;;;;;;;;4966197;28;20076;-64
2023/06/29 01:32:07;;;;;;;20.75;9.18;;;;;;;;;;5036197;28;20059;-65
2023/06/29 01:34:35;;;;;;;20.20;9.57;;;;;;;;;;5040076;28;20224;-64
2023/06/29 01:37:07;;;;;;;18.63;9.20;;;;;;;;;;5049514;28;20055;-64
2023/06/29 01:39:38;;;;;;;17.17;8.95;;;;;;;;;;5039003;28;20060;-64
2023/06/29 01:42:07;;;;;;;17.35;8.95;;;;;;;;;;5059368;28;20048;-63
2023/06/29 01:44:33;;;;;;;22.33;10.02;;;;;;;;;;5033484;28;20048;-64
2023/06/29 01:47:00;;;;;;;18.55;9.43;;;;;;;;;;5040562;28;20212;-64
2023/06/29 01:49:27;;;;;;;20.55;9.68;;;;;;;;;;5057006;28;20048;-64
2023/06/29 01:51:54;;;;;;;27.08;11.05;;;;;;;;;;5048637;28;20120;-64
2023/06/29 01:54:20;;;;;;;69.30;35.13;;;;;;;;;;5038589;28;20056;-65
2023/06/29 01:56:47;;;;;;;32.80;16.70;;;;;;;;;;5043827;28;20057;-64
2023/06/29 01:59:15;;;;;;;26.30;13.15;;;;;;;;;;5041729;28;20060;-66
2023/06/29 02:01:41;;;;;;;33.03;13.77;;;;;;;;;;5049217;28;20052;-66
2023/06/29 02:04:07;;;;;;;24.05;11.20;;;;;;;;;;5013702;28;20056;-66
2023/06/29 02:06:34;;;;;;;21.27;10.48;;;;;;;;;;5035178;28;20067;-64
2023/06/29 02:09:01;;;;;;;22.98;10.63;;;;;;;;;;5028416;28;20053;-67
2023/06/29 02:11:27;;;;;;;20.35;10.05;;;;;;;;;;5032851;28;20063;-68
2023/06/29 02:13:54;;;;;;;20.75;10.00;;;;;;;;;;5019818;28;20040;-67
2023/06/29 02:16:22;;;;;;;21.08;10.52;;;;;;;;;;5015679;28;20045;-67
2023/06/29 02:18:48;;;;;;;20.40;8.90;;;;;;;;;;5041453;28;20052;-67
2023/06/29 02:21:15;;;;;;;20.05;10.30;;;;;;;;;;5049301;28;20213;-67
2023/06/29 02:23:41;;;;;;;28.33;11.90;;;;;;;;;;5038646;28;20329;-68
2023/06/29 02:26:08;;;;;;;20.70;10.70;;;;;;;;;;5039315;28;20127;-66
2023/06/29 02:28:34;;;;;;;21.63;10.50;;;;;;;;;;5045884;28;20059;-66
2023/06/29 02:31:00;;;;;;;20.48;10.73;;;;;;;;;;5042664;28;20057;-67
2023/06/29 02:33:28;;;;;;;22.67;11.05;;;;;;;;;;5050653;28;20068;-67
2023/06/29 02:35:55;;;;;;;23.90;10.93;;;;;;;;;;5017261;28;20045;-66
2023/06/29 02:38:21;;;;;;;23.38;10.70;;;;;;;;;;5056617;28;20064;-66
2023/06/29 02:40:48;;;;;;;22.55;9.98;;;;;;;;;;5039469;28;20126;-68
2023/06/29 02:43:15;;;;;;;25.02;11.95;;;;;;;;;;5043136;28;20053;-67
2023/06/29 02:45:42;;;;;;;22.77;10.95;;;;;;;;;;5035509;28;20060;-67
2023/06/29 02:48:10;;;;;;;18.90;9.20;;;;;;;;;;5058770;28;20125;-67
2023/06/29 02:50:38;;;;;;;20.52;10.50;;;;;;;;;;5058820;28;20060;-67
2023/06/29 02:53:04;;;;;;;22.27;9.80;;;;;;;;;;5026548;28;20045;-67
2023/06/29 02:55:31;;;;;;;19.48;10.13;;;;;;;;;;5009858;28;20067;-67
2023/06/29 02:57:58;;;;;;;25.63;10.65;;;;;;;;;;5030575;28;20053;-66
2023/06/29 03:00:24;;;;;;;20.80;9.98;;;;;;;;;;5047533;28;20151;-66
2023/06/29 03:02:51;;;;;;;23.77;10.77;;;;;;;;;;5051147;28;20122;-66
2023/06/29 03:05:19;;;;;;;24.15;11.07;;;;;;;;;;5042554;28;20082;-66
2023/06/29 03:07:49;;;;;;;26.37;10.57;;;;;;;;;;5047199;28;20044;-66
2023/06/29 03:10:16;;;;;;;18.50;9.88;;;;;;;;;;5053331;28;20311;-66
2023/06/29 03:12:42;;;;;;;19.02;8.57;;;;;;;;;;5049674;28;20048;-66
2023/06/29 03:15:09;;;;;;;17.90;8.90;;;;;;;;;;5019791;28;20051;-67
2023/06/29 03:17:35;;;;;;;19.13;9.32;;;;;;;;;;5052024;28;20110;-66
2023/06/29 03:20:02;;;;;;;18.45;7.43;;;;;;;;;;5054626;28;20103;-67
2023/06/29 03:22:29;;;;;;;20.02;9.82;;;;;;;;;;5051841;28;20056;-67
2023/06/29 03:24:56;;;;;;;23.23;10.48;;;;;;;;;;5027926;28;20060;-68
2023/06/29 03:27:23;;;;;;;19.45;10.55;;;;;;;;;;5037038;28;20048;-67
2023/06/29 03:29:50;;;;;;;25.08;11.18;;;;;;;;;;5044470;28;20052;-67
2023/06/29 03:32:16;;;;;;;29.00;11.95;;;;;;;;;;5049521;28;20057;-67
2023/06/29 03:34:43;;;;;;;23.25;11.10;;;;;;;;;;5050407;28;20044;-67
2023/06/29 03:37:11;;;;;;;20.38;10.60;;;;;;;;;;5042956;28;20142;-66
2023/06/29 03:39:40;;;;;;;26.90;11.65;;;;;;;;;;5043747;28;20049;-66
2023/06/29 03:42:09;;;;;;;26.63;11.40;;;;;;;;;;5041995;28;20107;-66
2023/06/29 03:44:39;;;;;;;23.35;10.57;;;;;;;;;;5032695;28;20057;-66
2023/06/29 03:47:06;;;;;;;25.35;12.05;;;;;;;;;;5038071;28;20053;-66
2023/06/29 03:49:34;;;;;;;27.10;10.07;;;;;;;;;;5043385;28;20059;-66
2023/06/29 03:52:06;;;;;;;23.23;10.32;;;;;;;;;;5047389;28;20052;-66
2023/06/29 03:54:33;;;;;;;20.40;10.13;;;;;;;;;;5024390;28;20044;-67
2023/06/29 03:56:59;;;;;;;28.55;12.57;;;;;;;;;;5043423;28;20048;-64
2023/06/29 03:59:32;;;;;;;16.88;8.68;;;;;;;;;;5048067;28;20071;-64
2023/06/29 04:01:58;;;;;;;31.95;13.07;;;;;;;;;;5043520;28;20068;-64
2023/06/29 04:04:27;;;;;;;25.27;11.05;;;;;;;;;;5023112;28;20058;-65
2023/06/29 04:06:54;;;;;;;23.10;10.23;;;;;;;;;;5038545;28;20068;-66
2023/06/29 04:09:20;;;;;;;22.17;10.40;;;;;;;;;;5035608;28;20057;-67
2023/06/29 04:11:49;;;;;;;21.98;10.10;;;;;;;;;;5029218;28;20049;-66
2023/06/29 04:14:18;;;;;;;22.23;11.13;;;;;;;;;;5024756;28;20084;-66
2023/06/29 04:16:48;;;;;;;22.30;10.48;;;;;;;;;;5029981;28;20057;-66
2023/06/29 04:19:14;;;;;;;23.90;10.75;;;;;;;;;;5033139;28;20076;-66
2023/06/29 04:21:43;;;;;;;22.58;10.63;;;;;;;;;;5040335;28;20049;-67
2023/06/29 04:24:13;;;;;;;25.50;11.43;;;;;;;;;;5036567;28;20068;-66
2023/06/29 04:26:42;;;;;;;22.25;10.73;;;;;;;;;;5031414;28;20114;-69
2023/06/29 04:29:11;;;;;;;21.23;9.27;;;;;;;;;;5018143;28;20181;-68
2023/06/29 04:31:47;;;;;;;19.02;9.27;;;;;;;;;;5030922;28;20057;-66
2023/06/29 04:34:18;;;;;;;21.70;10.48;;;;;;;;;;5027612;28;20077;-69
2023/06/29 04:36:46;;;;;;;20.48;10.77;;;;;;;;;;5057639;28;20136;-67
2023/06/29 04:39:16;;;;;;;18.67;9.65;;;;;;;;;;5037205;28;20061;-67
2023/06/29 04:41:43;;;;;;;86.55;42.53;;;;;;;;;;5040240;28;20057;-66
2023/06/29 04:44:10;;;;;;;43.75;22.65;;;;;;;;;;5036648;28;20053;-66
2023/06/29 04:46:38;;;;;;;24.60;11.98;;;;;;;;;;5035840;28;20091;-67
2023/06/29 04:49:06;;;;;;;22.65;10.77;;;;;;;;;;5032666;28;20136;-67
2023/06/29 04:51:32;;;;;;;;;;;;;;;;;;5036018;28;20049;-66
2023/06/29 04:54:00;;;;;;;19.92;10.38;;;;;;;;;;5027560;28;19992;-67
2023/06/29 04:56:27;;;;;;;23.70;12.45;;;;;;;;;;5050703;28;20057;-66
2023/06/29 04:58:56;;;;;;;27.65;13.27;;;;;;;;;;5034833;28;20052;-68
2023/06/29 05:01:22;;;;;;;;;;;;;;;;;;5043302;28;20139;-67
2023/06/29 05:03:48;;;;;;;24.40;10.45;;;;;;;;;;5038881;28;19931;-67
2023/06/29 05:06:15;;;;;;;20.27;9.85;;;;;;;;;;5032302;28;20091;-66
2023/06/29 05:08:42;;;;;;;23.02;10.73;;;;;;;;;;5038719;28;20068;-66
2023/06/29 05:11:10;;;;;;;31.13;13.70;;;;;;;;;;5038282;28;20377;-67
2023/06/29 05:13:36;;;;;;;31.27;14.20;;;;;;;;;;5036107;28;20060;-66
2023/06/29 05:16:03;;;;;;;54.95;26.10;;;;;;;;;;5032029;28;20189;-66
2023/06/29 05:18:29;;;;;;;55.00;27.25;;;;;;;;;;5036836;28;20045;-66
2023/06/29 05:21:07;;;;;;;31.30;16.63;;;;;;;;;;5035704;28;20064;-67
2023/06/29 05:23:34;;;;;;;26.48;11.45;;;;;;;;;;5038324;28;20060;-67
2023/06/29 05:26:00;;;;;;;24.20;11.68;;;;;;;;;;5041112;28;20041;-68
2023/06/29 05:28:28;;;;;;;23.27;11.57;;;;;;;;;;5026001;28;20054;-68
2023/06/29 05:30:57;;;;;;;37.65;15.25;;;;;;;;;;5044366;28;20053;-69
2023/06/29 05:33:26;;;;;;;24.05;11.07;;;;;;;;;;5037096;28;20052;-66
2023/06/29 05:35:52;;;;;;;;;;;;;;;;;;5033734;28;20060;-67
2023/06/29 05:38:18;;;;;;;21.02;10.32;;;;;;;;;;5032911;28;20019;-67
2023/06/29 05:40:45;;;;;;;33.85;14.02;;;;;;;;;;5027118;28;20045;-66
2023/06/29 05:43:12;;;;;;;26.25;12.75;;;;;;;;;;5021273;28;20117;-67
2023/06/29 05:45:41;;;;;;;26.90;11.82;;;;;;;;;;5026160;28;20081;-64
2023/06/29 05:48:07;;;;;;;19.88;10.30;;;;;;;;;;5024214;28;20073;-66
2023/06/29 05:50:35;;;;;;;28.33;12.20;;;;;;;;;;5029865;28;20064;-65
2023/06/29 05:53:02;;;;;;;;;;;;;;;;;;5032799;28;20065;-65
2023/06/29 05:55:33;;;;;;;21.00;9.55;;;;;;;;;;5026007;28;20012;-66
2023/06/29 05:58:00;;;;;;;29.13;12.63;;;;;;;;;;5046556;28;20067;-66
2023/06/29 06:00:29;;;;;;;19.45;8.70;;;;;;;;;;5033236;28;20045;-66
2023/06/29 06:02:58;;;;;;;22.63;9.68;;;;;;;;;;5013778;28;20053;-65
2023/06/29 06:05:25;;;;;;;23.38;9.27;;;;;;;;;;5021780;28;20064;-66
2023/06/29 06:07:51;;;;;;;27.05;10.68;;;;;;;;;;5034869;28;20095;-66
2023/06/29 06:10:18;;;;;;;16.60;8.05;;;;;;;;;;5035631;28;20102;-65
2023/06/29 06:12:51;;;;;;;28.13;12.80;;;;;;;;;;5031588;28;20060;-65
2023/06/29 06:15:21;;;;;;;14.88;6.97;;;;;;;;;;5022909;28;20056;-65
2023/06/29 06:17:48;;;;;;;27.33;13.00;;;;;;;;;;5040520;28;20072;-64
2023/06/29 06:20:16;;;;;;;30.33;11.48;;;;;;;;;;5042214;28;20060;-64
2023/06/29 06:22:43;;;;;;;22.15;9.95;;;;;;;;;;5024808;28;20136;-66
2023/06/29 06:25:18;;;;;;;26.05;12.93;;;;;;;;;;5020513;28;20052;-66
2023/06/29 06:27:44;;;;;;;21.30;10.80;;;;;;;;;;5030783;28;20061;-63
2023/06/29 06:30:13;;;;;;;25.58;11.60;;;;;;;;;;5028841;28;20095;-66
2023/06/29 06:32:42;;;;;;;29.13;13.15;;;;;;;;;;5034381;28;20122;-64
2023/06/29 06:35:09;;;;;;;29.77;12.50;;;;;;;;;;5006066;28;20131;-66
2023/06/29 06:37:38;;;;;;;26.33;10.52;;;;;;;;;;5030064;28;20049;-68
2023/06/29 06:40:07;;;;;;;23.75;10.40;;;;;;;;;;5048945;28;20059;-64
2023/06/29 06:42:34;;;;;;;30.20;12.60;;;;;;;;;;5022654;28;20065;-67
2023/06/29 06:45:03;;;;;;;29.90;13.27;;;;;;;;;;5037791;28;20125;-67
2023/06/29 06:47:30;;;;;;;24.15;10.95;;;;;;;;;;5045651;28;20142;-67
2023/06/29 06:49:57;;;;;;;31.65;14.32;;;;;;;;;;5024262;28;20140;-65
2023/06/29 06:52:27;;;;;;;31.35;13.75;;;;;;;;;;5024249;28;20060;-66
2023/06/29 06:54:58;;;;;;;22.40;9.63;;;;;;;;;;5015286;28;20103;-65
2023/06/29 06:57:25;;;;;;;27.27;12.55;;;;;;;;;;5048252;28;20057;-64
2023/06/29 06:59:52;;;;;;;19.70;9.93;;;;;;;;;;5051610;28;20057;-65
2023/06/29 07:02:18;;;;;;;24.80;10.73;;;;;;;;;;5042428;28;20125;-65
2023/06/29 07:04:45;;;;;;;29.30;11.85;;;;;;;;;;5026503;28;20060;-63
2023/06/29 07:07:11;;;;;;;17.63;7.97;;;;;;;;;;5039262;28;20967;-64
2023/06/29 07:09:38;;;;;;;26.95;11.65;;;;;;;;;;5046365;28;20044;-66
2023/06/29 07:12:09;;;;;;;31.98;14.10;;;;;;;;;;5026949;28;20213;-65
2023/06/29 07:14:35;;;;;;;26.95;12.25;;;;;;;;;;5041808;28;20068;-65
2023/06/29 07:17:04;;;;;;;26.33;12.13;;;;;;;;;;5034509;28;20057;-65
2023/06/29 07:19:31;;;;;;;28.55;12.20;;;;;;;;;;5043252;28;20113;-66
2023/06/29 07:22:00;;;;;;;24.00;10.75;;;;;;;;;;5038642;28;20056;-66
2023/06/29 07:24:26;;;;;;;20.98;10.10;;;;;;;;;;5031970;28;20053;-65
2023/06/29 07:26:56;;;;;;;18.52;7.45;;;;;;;;;;5036307;28;20056;-65
2023/06/29 07:29:24;;;;;;;26.63;9.40;;;;;;;;;;5041094;28;20060;-65
2023/06/29 07:31:50;;;;;;;18.13;8.18;;;;;;;;;;5041679;28;20060;-66
2023/06/29 07:34:19;;;;;;;19.92;9.00;;;;;;;;;;5042649;28;20049;-66
2023/06/29 07:36:45;;;;;;;17.77;8.00;;;;;;;;;;5055645;28;20056;-66
2023/06/29 07:39:12;;;;;;;21.58;8.85;;;;;;;;;;5027344;28;20076;-66
2023/06/29 07:41:41;;;;;;;19.70;9.25;;;;;;;;;;5051224;28;20063;-64
2023/06/29 07:44:11;;;;;;;20.48;9.75;;;;;;;;;;5046967;28;20071;-66
2023/06/29 07:46:39;;;;;;;22.42;9.07;;;;;;;;;;5032327;28;20061;-66
2023/06/29 07:49:05;;;;;;;23.33;10.38;;;;;;;;;;5047825;28;20063;-64
2023/06/29 07:51:34;;;;;;;20.65;9.18;;;;;;;;;;5054604;28;20060;-64
2023/06/29 07:54:02;;;;;;;51.17;29.98;;;;;;;;;;5045564;28;20048;-68
2023/06/29 07:56:28;;;;;;;24.60;12.02;;;;;;;;;;5032030;28;20060;-65
2023/06/29 07:58:55;;;;;;;31.50;14.73;;;;;;;;;;5032911;28;20651;-67
2023/06/29 08:01:21;;;;;;;22.48;9.98;;;;;;;;;;5055293;28;20134;-65
2023/06/29 08:03:53;;;;;;;20.45;7.78;;;;;;;;;;5043899;28;20053;-66
2023/06/29 08:06:20;;;;;;;19.15;8.98;;;;;;;;;;5009597;28;20052;-66
2023/06/29 08:08:47;;;;;;;22.60;10.23;;;;;;;;;;5037237;28;20044;-64
2023/06/29 08:11:14;;;;;;;13.88;5.93;;;;;;;;;;5048699;28;20057;-67
2023/06/29 08:13:40;;;;;;;14.90;7.20;;;;;;;;;;5038296;28;20052;-66
2023/06/29 08:16:07;;;;;;;19.38;9.20;;;;;;;;;;5027765;28;20102;-66
2023/06/29 08:18:33;;;;;;;18.40;8.50;;;;;;;;;;5061657;28;20068;-67
2023/06/29 08:21:02;;;;;;;22.77;9.65;;;;;;;;;;5037042;28;20051;-66
2023/06/29 08:23:34;;;;;;;24.75;9.45;;;;;;;;;;5045004;28;20056;-65
2023/06/29 08:26:00;;;;;;;18.55;8.02;;;;;;;;;;5026168;28;20049;-65
2023/06/29 08:28:27;;;;;;;17.25;8.15;;;;;;;;;;5048563;28;20148;-65
2023/06/29 08:30:54;;;;;;;19.27;8.95;;;;;;;;;;5049078;28;20331;-64
2023/06/29 08:33:23;;;;;;;18.92;8.32;;;;;;;;;;5041343;28;20064;-65
2023/06/29 08:35:50;;;;;;;19.02;8.57;;;;;;;;;;5021481;28;20057;-67
2023/06/29 08:38:18;;;;;;;20.08;8.35;;;;;;;;;;5040220;28;20075;-66
2023/06/29 08:40:46;;;;;;;23.83;10.00;;;;;;;;;;5036108;28;20097;-66
2023/06/29 08:43:14;;;;;;;16.67;7.38;;;;;;;;;;5051789;28;20124;-69
2023/06/29 08:45:40;;;;;;;20.40;7.68;;;;;;;;;;5003412;28;20064;-68
2023/06/29 08:48:09;;;;;;;20.45;8.57;;;;;;;;;;5049917;28;20136;-64
2023/06/29 08:50:44;;;;;;;20.77;8.48;;;;;;;;;;5058673;28;20048;-69
2023/06/29 08:53:11;;;;;;;23.17;9.68;;;;;;;;;;5025273;28;20299;-66
2023/06/29 08:55:40;;;;;;;14.60;7.38;;;;;;;;;;5013438;28;20071;-68
2023/06/29 08:58:07;;;;;;;17.13;8.05;;;;;;;;;;5056101;28;20068;-67
2023/06/29 09:00:34;;;;;;;20.15;8.27;;;;;;;;;;5051448;28;20065;-69
2023/06/29 09:03:01;;;;;;;17.50;8.18;;;;;;;;;;5052895;28;20076;-68
2023/06/29 09:05:28;;;;;;;24.07;9.20;;;;;;;;;;5010553;28;20106;-64
2023/06/29 09:07:57;;;;;;;23.20;8.57;;;;;;;;;;5053921;28;20102;-67
2023/06/29 09:10:26;;;;;;;21.08;8.30;;;;;;;;;;5052585;28;20057;-66
2023/06/29 09:12:56;;;;;;;19.15;9.15;;;;;;;;;;5048320;28;20091;-68
2023/06/29 09:15:25;;;;;;;27.95;11.45;;;;;;;;;;5040763;28;20056;-66
2023/06/29 09:17:55;;;;;;;19.05;8.18;;;;;;;;;;5058823;28;20063;-67
2023/06/29 09:20:22;;;;;;;26.35;10.13;;;;;;;;;;5043265;28;20052;-70
2023/06/29 09:22:53;;;;;;;24.70;10.40;;;;;;;;;;5050160;28;20139;-67
2023/06/29 09:25:25;;;;;;;19.27;9.30;;;;;;;;;;5034909;28;20057;-68
2023/06/29 09:28:01;;;;;;;21.35;9.23;;;;;;;;;;5053580;28;20040;-66
2023/06/29 09:30:37;;;;;;;19.10;8.00;;;;;;;;;;5058629;28;20044;-65
2023/06/29 09:33:08;;;;;;;17.65;7.90;;;;;;;;;;5037716;28;20059;-69
2023/06/29 09:35:35;;;;;;;20.17;8.60;;;;;;;;;;5026680;28;20162;-69
2023/06/29 09:38:05;;;;;;;18.98;8.00;;;;;;;;;;5035394;28;20056;-67
2023/06/29 09:40:34;;;;;;;17.63;8.65;;;;;;;;;;5054229;28;20072;-70
2023/06/29 09:43:05;;;;;;;24.33;9.85;;;;;;;;;;5047714;28;20111;-71
2023/06/29 09:45:33;;;;;;;20.60;8.23;;;;;;;;;;5010921;28;20060;-70
2023/06/29 09:48:04;;;;;;;25.02;10.00;;;;;;;;;;5055567;28;20106;-67
2023/06/29 09:50:30;;;;;;;14.55;7.10;;;;;;;;;;5043421;28;20076;-68
2023/06/29 09:52:57;;;;;;;18.67;9.18;;;;;;;;;;5023268;28;20060;-70
2023/06/29 09:55:32;;;;;;;23.38;9.48;;;;;;;;;;4999543;28;20073;-70
2023/06/29 09:57:59;;;;;;;17.52;7.95;;;;;;;;;;5022843;28;20053;-71
2023/06/29 10:00:32;;;;;;;15.85;7.47;;;;;;;;;;5042392;28;20111;-67
2023/06/29 10:03:03;;;;;;;19.90;8.80;;;;;;;;;;5044085;28;20064;-69
2023/06/29 10:05:31;;;;;;;14.95;7.50;;;;;;;;;;5011093;28;20061;-68
2023/06/29 10:07:59;;;;;;;18.33;9.00;;;;;;;;;;5064340;28;20036;-72
2023/06/29 10:10:33;;;;;;;19.85;8.43;;;;;;;;;;5039350;28;20083;-70
2023/06/29 10:13:00;;;;;;;15.00;7.15;;;;;;;;;;5044560;28;20061;-67
2023/06/29 10:15:30;;;;;;;18.00;8.57;;;;;;;;;;5018126;28;20065;-68
2023/06/29 10:18:07;;;;;;;17.20;8.18;;;;;;;;;;5033228;28;20056;-68
2023/06/29 10:20:37;;;;;;;23.48;10.25;;;;;;;;;;5035266;28;20117;-70
2023/06/29 10:23:08;;;;;;;19.20;8.95;;;;;;;;;;5042390;28;20067;-67
2023/06/29 10:25:37;;;;;;;20.65;9.38;;;;;;;;;;5017501;28;20319;-69
2023/06/29 10:28:04;;;;;;;20.42;8.35;;;;;;;;;;5040386;28;20159;-67
2023/06/29 10:30:43;;;;;;;15.57;7.43;;;;;;;;;;5050406;28;20135;-68
2023/06/29 10:33:10;;;;;;;26.88;10.27;;;;;;;;;;5036489;28;20299;-69
2023/06/29 10:35:40;;;;;;;20.55;8.95;;;;;;;;;;5039064;28;20067;-70
2023/06/29 10:38:12;;;;;;;22.40;9.77;;;;;;;;;;5043336;28;20056;-68
2023/06/29 10:40:46;;;;;;;23.60;9.75;;;;;;;;;;5051956;28;20118;-72
2023/06/29 10:43:13;;;;;;;19.30;8.45;;;;;;;;;;5053557;28;20933;-67
2023/06/29 10:45:41;;;;;;;21.63;9.35;;;;;;;;;;5041118;28;20059;-70
2023/06/29 10:48:23;;;;;;;23.95;11.23;;;;;;;;;;5059441;28;20147;-70
2023/06/29 10:50:51;;;;;;;18.92;8.93;;;;;;;;;;5045371;28;20049;-68
2023/06/29 10:53:19;;;;;;;17.15;8.15;;;;;;;;;;5054222;28;20061;-70
2023/06/29 10:55:50;;;;;;;18.67;8.73;;;;;;;;;;5003912;28;20114;-69
2023/06/29 10:58:20;;;;;;;24.80;10.45;;;;;;;;;;5051746;28;20044;-69
2023/06/29 11:01:01;;;;;;;22.23;9.52;;;;;;;;;;5037382;28;20131;-69
2023/06/29 11:03:28;;;;;;;20.17;9.73;;;;;;;;;;5045445;28;20053;-69
2023/06/29 11:05:57;;;;;;;25.42;10.70;;;;;;;;;;5028755;28;20121;-70
2023/06/29 11:08:27;;;;;;;19.52;8.43;;;;;;;;;;5050547;28;20052;-67
2023/06/29 11:10:54;;;;;;;17.92;7.55;;;;;;;;;;5056765;28;20125;-69
2023/06/29 11:13:21;;;;;;;19.80;9.25;;;;;;;;;;5047908;28;20287;-68
2023/06/29 11:15:56;;;;;;;20.77;8.75;;;;;;;;;;5025219;28;20063;-67
2023/06/29 11:18:23;;;;;;;20.23;8.73;;;;;;;;;;5049995;28;20053;-70
2023/06/29 11:20:50;;;;;;;17.85;8.30;;;;;;;;;;5057914;28;20044;-70
2023/06/29 11:23:16;;;;;;;16.35;8.70;;;;;;;;;;5039511;28;20071;-73
2023/06/29 11:25:43;;;;;;;25.60;12.48;;;;;;;;;;5044627;28;20130;-70
2023/06/29 11:28:09;;;;;;;21.25;8.73;;;;;;;;;;5031762;28;20112;-70
2023/06/29 11:30:41;;;;;;;20.25;9.13;;;;;;;;;;5050722;28;20086;-70
2023/06/29 11:33:10;;;;;;;19.92;9.48;;;;;;;;;;5027607;28;20371;-70
2023/06/29 11:35:37;;;;;;;19.88;9.65;;;;;;;;;;5023078;28;20057;-67
2023/06/29 11:38:03;;;;;;;18.15;8.63;;;;;;;;;;5039703;28;20044;-69
2023/06/29 11:40:32;;;;;;;23.40;9.63;;;;;;;;;;5062474;28;20168;-68
2023/06/29 11:43:03;;;;;;;21.88;9.68;;;;;;;;;;5031634;28;20057;-70
2023/06/29 11:45:33;;;;;;;19.25;9.20;;;;;;;;;;5035376;28;20115;-67
2023/06/29 11:48:01;;;;;;;18.17;8.73;;;;;;;;;;5053144;28;20117;-73
2023/06/29 11:50:32;;;;;;;19.52;9.65;;;;;;;;;;5047774;28;20143;-68
2023/06/29 11:52:59;;;;;;;16.55;7.38;;;;;;;;;;5027665;28;20045;-71
2023/06/29 11:55:26;;;;;;;26.67;11.63;;;;;;;;;;5026468;28;20060;-70
2023/06/29 11:57:54;;;;;;;28.27;13.10;;;;;;;;;;5041907;28;20140;-70
2023/06/29 12:00:31;;;;;;;21.60;9.68;;;;;;;;;;5057916;28;20057;-69
2023/06/29 12:02:58;;;;;;;17.92;8.82;;;;;;;;;;5034371;28;20052;-72
2023/06/29 12:05:29;;;;;;;25.20;10.93;;;;;;;;;;5053122;28;20100;-74
2023/06/29 12:08:15;;;;;;;23.73;11.27;;;;;;;;;;5047945;28;20069;-68
2023/06/29 12:11:03;;;;;;;23.63;11.60;;;;;;;;;;5041554;28;20076;-72
2023/06/29 12:13:30;;;;;;;22.10;10.15;;;;;;;;;;5039124;28;20145;-74
2023/06/29 12:16:01;;;;;;;27.00;12.05;;;;;;;;;;4993164;28;20057;-74
2023/06/29 12:18:28;;;;;;;23.25;11.82;;;;;;;;;;5046374;28;20056;-70
2023/06/29 12:21:01;;;;;;;22.38;8.82;;;;;;;;;;5035238;28;20118;-70
2023/06/29 12:23:29;;;;;;;19.55;8.57;;;;;;;;;;5044910;28;20048;-69
2023/06/29 12:25:55;;;;;;;19.33;8.88;;;;;;;;;;5025437;28;20060;-71
2023/06/29 12:28:23;;;;;;;20.05;10.07;;;;;;;;;;5048050;28;20049;-73
2023/06/29 12:30:51;;;;;;;32.47;14.17;;;;;;;;;;5051574;28;20057;-70
2023/06/29 12:33:18;;;;;;;22.45;10.23;;;;;;;;;;5025018;28;20081;-69
2023/06/29 12:35:45;;;;;;;21.63;10.80;;;;;;;;;;5023376;28;20111;-73
2023/06/29 12:38:16;;;;;;;19.08;9.70;;;;;;;;;;5036080;28;20170;-70
2023/06/29 12:40:48;;;;;;;21.53;9.77;;;;;;;;;;5035661;28;20054;-66
2023/06/29 12:43:15;;;;;;;20.40;10.05;;;;;;;;;;5044128;28;20056;-76
2023/06/29 12:45:43;;;;;;;20.25;9.70;;;;;;;;;;5026125;28;20084;-73
2023/06/29 12:48:09;;;;;;;24.85;11.70;;;;;;;;;;5048557;28;20060;-70
2023/06/29 12:50:36;;;;;;;22.08;10.05;;;;;;;;;;5044387;28;20103;-69
2023/06/29 12:53:02;;;;;;;28.88;12.82;;;;;;;;;;5041889;28;20060;-72
2023/06/29 12:55:33;;;;;;;26.50;12.45;;;;;;;;;;5024837;28;20155;-70
2023/06/29 12:57:59;;;;;;;26.77;12.23;;;;;;;;;;5048790;28;20056;-68
2023/06/29 13:00:29;;;;;;;26.65;12.27;;;;;;;;;;5041212;28;20071;-69
2023/06/29 13:02:57;;;;;;;25.08;12.55;;;;;;;;;;5049971;28;20118;-73
2023/06/29 13:05:25;;;;;;;22.15;10.48;;;;;;;;;;5046549;28;20049;-71
2023/06/29 13:07:51;;;;;;;28.95;12.65;;;;;;;;;;5058197;28;20187;-69
2023/06/29 13:10:18;;;;;;;23.05;12.13;;;;;;;;;;5062189;28;20110;-69
2023/06/29 13:12:46;;;;;;;23.08;12.13;;;;;;;;;;5060882;28;20144;-69
2023/06/29 13:15:12;;;;;;;;;;;;;;;;;;5031650;28;20057;-70
2023/06/29 13:17:39;;;;;;;28.67;14.23;;;;;;;;;;5052659;28;19924;-66
2023/06/29 13:20:09;;;;;;;27.13;12.80;;;;;;;;;;5061717;28;20049;-72
2023/06/29 13:22:39;;;;;;;28.50;11.68;;;;;;;;;;5051848;28;20076;-66
2023/06/29 13:25:06;;;;;;;21.58;10.45;;;;;;;;;;5046630;28;20048;-65
2023/06/29 13:27:33;;;;;;;28.50;13.10;;;;;;;;;;5049686;28;20144;-67
2023/06/29 13:30:01;;;;;;;28.35;11.10;;;;;;;;;;5055059;28;20052;-71
2023/06/29 13:32:27;;;;;;;23.45;11.80;;;;;;;;;;5044232;28;20080;-68
2023/06/29 13:34:56;;;;;;;23.50;10.55;;;;;;;;;;5039834;28;20067;-67
2023/06/29 13:37:23;;;;;;;26.67;12.70;;;;;;;;;;5057845;28;20048;-72
2023/06/29 13:39:49;;;;;;;31.23;11.95;;;;;;;;;;5053809;28;20056;-69
2023/06/29 13:42:16;;;;;;;24.55;12.13;;;;;;;;;;5056003;28;20114;-68
2023/06/29 13:44:42;;;;;;;29.88;14.45;;;;;;;;;;5044156;28;20055;-72
2023/06/29 13:47:22;;;;;;;21.17;10.40;;;;;;;;;;5018979;28;20076;-71
2023/06/29 13:49:50;;;;;;;25.52;11.85;;;;;;;;;;5048098;28;20058;-71
2023/06/29 13:52:17;;;;;;;27.55;12.77;;;;;;;;;;5051122;28;20048;-70
2023/06/29 13:54:43;;;;;;;23.90;11.20;;;;;;;;;;5052939;28;20045;-73
2023/06/29 13:57:10;;;;;;;24.70;13.65;;;;;;;;;;5037819;28;20087;-72
2023/06/29 13:59:37;;;;;;;24.58;12.35;;;;;;;;;;5047729;28;20114;-68
2023/06/29 14:02:06;;;;;;;21.92;10.52;;;;;;;;;;5050307;28;20049;-71
2023/06/29 14:04:34;;;;;;;19.75;10.13;;;;;;;;;;5039135;28;20057;-70
2023/06/29 14:07:00;;;;;;;18.90;8.93;;;;;;;;;;4971342;28;20133;-69
2023/06/29 14:09:32;;;;;;;19.02;9.75;;;;;;;;;;5033168;28;20053;-73
2023/06/29 14:12:00;;;;;;;19.63;8.88;;;;;;;;;;5030615;28;20158;-68
2023/06/29 14:14:26;;;;;;;17.40;8.48;;;;;;;;;;5024689;28;20124;-72
2023/06/29 14:16:58;;;;;;;20.02;9.02;;;;;;;;;;5015555;28;20049;-72
2023/06/29 14:19:24;;;;;;;22.13;8.68;;;;;;;;;;5035267;28;20132;-71
2023/06/29 14:21:52;;;;;;;19.63;8.95;;;;;;;;;;5034722;28;20058;-70
2023/06/29 14:24:24;;;;;;;17.10;8.45;;;;;;;;;;5043232;28;20080;-70
2023/06/29 14:26:53;;;;;;;24.08;8.82;;;;;;;;;;5032398;28;20053;-73
2023/06/29 14:29:20;;;;;;;19.23;9.18;;;;;;;;;;5021754;28;20052;-70
2023/06/29 14:31:48;;;;;;;19.60;9.13;;;;;;;;;;5035825;28;20060;-68